createdAt,value
2023-01-20T00:00:08.022Z,10.33
2023-01-20T00:02:58.383Z,10.27
2023-01-20T00:05:51.982Z,10.23
2023-01-20T00:08:38.405Z,10.34
2023-01-20T00:11:25.181Z,10.38
2023-01-20T00:14:11.778Z,10.36
2023-01-20T00:16:57.603Z,10.22
2023-01-20T00:19:43.423Z,10.34
2023-01-20T00:22:29.206Z,10.32
2023-01-20T00:25:15.637Z,10.26
2023-01-20T00:28:01.991Z,10.19
2023-01-20T00:30:47.730Z,10.26
2023-01-20T00:33:33.484Z,10.26
2023-01-20T00:36:20.865Z,10.31
2023-01-20T00:39:06.972Z,10.22
2023-01-20T00:41:53.639Z,10.29
2023-01-20T00:44:39.552Z,10.24
2023-01-20T00:47:25.281Z,10.22
2023-01-20T00:50:11.154Z,10.34
2023-01-20T00:52:56.915Z,10.36
2023-01-20T00:55:42.758Z,10.38
2023-01-20T00:58:28.824Z,10.39
2023-01-20T01:01:14.746Z,10.32
2023-01-20T01:04:00.675Z,10.36
2023-01-20T01:06:47.662Z,10.40
2023-01-20T01:09:33.932Z,10.38
2023-01-20T01:12:22.926Z,10.35
2023-01-20T01:15:09.416Z,10.37
2023-01-20T01:17:56.519Z,10.38
2023-01-20T01:20:44.760Z,10.36
2023-01-20T01:23:30.549Z,10.27
2023-01-20T01:26:16.391Z,10.32
2023-01-20T01:29:02.365Z,10.29
2023-01-20T01:31:48.481Z,10.34
2023-01-20T01:34:34.453Z,10.31
2023-01-20T01:37:20.753Z,10.29
2023-01-20T01:40:07.647Z,10.25
2023-01-20T01:42:53.688Z,10.33
2023-01-20T01:45:39.697Z,10.30
2023-01-20T01:48:34.016Z,10.23
2023-01-20T01:51:26.267Z,10.26
2023-01-20T01:54:15.984Z,10.27
2023-01-20T01:57:02.220Z,10.28
2023-01-20T01:59:48.264Z,10.29
2023-01-20T02:02:36.208Z,10.19
2023-01-20T02:05:24.373Z,10.28
2023-01-20T02:08:10.697Z,10.30
2023-01-20T02:10:56.824Z,10.28
2023-01-20T02:13:42.796Z,10.30
2023-01-20T02:16:38.379Z,10.26
2023-01-20T02:19:44.286Z,10.26
2023-01-20T02:22:44.407Z,10.28
2023-01-20T02:26:12.285Z,10.17
2023-01-20T02:29:10.175Z,10.19
2023-01-20T02:32:02.296Z,10.18
2023-01-20T02:35:01.937Z,10.12
2023-01-20T02:37:54.395Z,10.14
2023-01-20T02:40:46.260Z,10.10
2023-01-20T02:43:38.619Z,10.07
2023-01-20T02:46:32.173Z,10.05
2023-01-20T02:49:19.024Z,10.01
2023-01-20T02:52:08.741Z,9.92
2023-01-20T02:54:57.356Z,10.02
2023-01-20T02:57:53.537Z,9.96
2023-01-20T03:00:43.383Z,9.97
2023-01-20T03:03:35.164Z,9.87
2023-01-20T03:06:25.446Z,9.98
2023-01-20T03:09:13.426Z,9.90
2023-01-20T03:12:04.729Z,9.97
2023-01-20T03:14:52.097Z,9.91
2023-01-20T03:17:37.950Z,10.02
2023-01-20T03:20:24.042Z,9.98
2023-01-20T03:23:11.509Z,9.91
2023-01-20T03:25:58.002Z,10.01
2023-01-20T03:28:45.362Z,9.98
2023-01-20T03:31:35.961Z,9.94
2023-01-20T03:34:23.530Z,9.96
2023-01-20T03:37:11.321Z,9.82
2023-01-20T03:39:58.042Z,9.81
2023-01-20T03:43:09.428Z,9.83
2023-01-20T03:46:00.919Z,9.89
2023-01-20T03:48:50.348Z,9.92
2023-01-20T03:52:00.707Z,9.92
2023-01-20T03:54:56.073Z,9.90
2023-01-20T03:57:45.769Z,9.88
2023-01-20T04:00:34.047Z,9.90
2023-01-20T04:03:23.081Z,9.93
2023-01-20T04:06:12.031Z,9.88
2023-01-20T04:09:07.445Z,9.92
2023-01-20T04:11:53.811Z,9.95
2023-01-20T04:14:40.087Z,9.83
2023-01-20T04:17:29.559Z,9.93
2023-01-20T04:20:16.120Z,9.93
2023-01-20T04:23:02.791Z,9.84
2023-01-20T04:25:49.128Z,9.83
2023-01-20T04:28:35.033Z,9.97
2023-01-20T04:31:30.203Z,9.96
2023-01-20T04:34:17.175Z,9.87
2023-01-20T04:37:03.109Z,9.96
2023-01-20T04:39:49.004Z,9.87
2023-01-20T04:42:34.740Z,9.97
2023-01-20T04:45:20.683Z,9.88
2023-01-20T04:48:07.818Z,9.98
2023-01-20T04:50:53.840Z,9.98
2023-01-20T04:53:39.777Z,9.96
2023-01-20T04:56:26.188Z,9.96
2023-01-20T04:59:11.861Z,9.92
2023-01-20T05:01:57.887Z,9.85
2023-01-20T05:04:43.636Z,9.87
2023-01-20T05:07:29.446Z,9.88
2023-01-20T05:10:15.391Z,9.91
2023-01-20T05:13:01.547Z,9.88
2023-01-20T05:15:47.797Z,9.76
2023-01-20T05:18:34.176Z,9.85
2023-01-20T05:21:20.036Z,9.83
2023-01-20T05:24:06.174Z,9.88
2023-01-20T05:26:52.194Z,9.86
2023-01-20T05:29:38.060Z,9.84
2023-01-20T05:32:24.108Z,9.87
2023-01-20T05:35:10.466Z,9.86
2023-01-20T05:37:56.590Z,9.86
2023-01-20T05:40:42.534Z,9.88
2023-01-20T05:43:28.344Z,9.88
2023-01-20T05:46:15.656Z,9.93
2023-01-20T05:49:03.067Z,9.89
2023-01-20T05:51:49.129Z,9.84
2023-01-20T05:54:35.082Z,9.79
2023-01-20T05:57:24.440Z,9.93
2023-01-20T06:00:10.887Z,9.86
2023-01-20T06:02:56.777Z,9.87
2023-01-20T06:05:42.594Z,9.59
2023-01-20T06:08:28.543Z,9.74
2023-01-20T06:11:15.254Z,9.59
2023-01-20T06:14:01.221Z,9.70
2023-01-20T06:16:47.021Z,9.65
2023-01-20T06:19:32.969Z,9.67
2023-01-20T06:22:21.041Z,9.60
2023-01-20T06:25:07.456Z,9.59
2023-01-20T06:27:53.403Z,9.65
2023-01-20T06:30:39.109Z,9.60
2023-01-20T06:33:24.751Z,9.66
2023-01-20T06:36:15.915Z,9.57
2023-01-20T06:39:01.832Z,9.69
2023-01-20T06:41:47.549Z,9.70
2023-01-20T06:44:34.139Z,9.66
2023-01-20T06:47:20.093Z,9.65
2023-01-20T06:50:06.394Z,9.68
2023-01-20T06:52:53.739Z,9.56
2023-01-20T06:55:39.690Z,9.54
2023-01-20T06:58:27.654Z,9.62
2023-01-20T07:01:24.208Z,9.58
2023-01-20T07:04:13.686Z,9.60
2023-01-20T07:06:59.435Z,9.63
2023-01-20T07:09:45.317Z,9.53
2023-01-20T07:12:31.095Z,9.48
2023-01-20T07:15:17.205Z,9.48
2023-01-20T07:18:03.381Z,9.52
2023-01-20T07:20:53.868Z,9.52
2023-01-20T07:23:39.880Z,9.51
2023-01-20T07:26:26.642Z,9.54
2023-01-20T07:29:12.533Z,9.54
2023-01-20T07:31:58.537Z,9.51
2023-01-20T07:34:44.411Z,9.40
2023-01-20T07:37:30.151Z,9.51
2023-01-20T07:40:16.003Z,9.49
2023-01-20T07:43:04.907Z,9.42
2023-01-20T07:45:50.933Z,9.36
2023-01-20T07:48:37.439Z,9.28
2023-01-20T07:51:23.448Z,9.43
2023-01-20T07:54:11.734Z,9.38
2023-01-20T07:56:57.576Z,9.00
2023-01-20T07:59:43.337Z,9.30
2023-01-20T08:02:29.383Z,9.29
2023-01-20T08:05:16.012Z,9.19
2023-01-20T08:08:02.218Z,9.17
2023-01-20T08:10:54.072Z,9.03
2023-01-20T08:13:40.619Z,8.92
2023-01-20T08:16:26.519Z,8.69
2023-01-20T08:19:12.382Z,8.65
2023-01-20T08:21:58.172Z,8.53
2023-01-20T08:24:43.991Z,8.52
2023-01-20T08:27:29.819Z,8.40
2023-01-20T08:30:15.941Z,8.38
2023-01-20T08:33:01.833Z,8.32
2023-01-20T08:35:47.870Z,8.27
2023-01-20T08:38:34.737Z,8.23
2023-01-20T08:41:28.011Z,8.25
2023-01-20T08:44:15.540Z,8.25
2023-01-20T08:47:03.151Z,8.18
2023-01-20T08:49:49.125Z,8.12
2023-01-20T08:52:35.432Z,8.12
2023-01-20T08:55:21.095Z,8.04
2023-01-20T08:58:06.997Z,8.08
2023-01-20T09:00:53.081Z,8.07
2023-01-20T09:03:40.076Z,8.06
2023-01-20T09:06:27.210Z,7.90
2023-01-20T09:09:14.716Z,8.03
2023-01-20T09:12:00.970Z,7.97
2023-01-20T09:14:46.907Z,7.92
2023-01-20T09:17:32.943Z,7.91
2023-01-20T09:20:19.113Z,7.86
2023-01-20T09:23:04.883Z,7.83
2023-01-20T09:25:50.561Z,7.82
2023-01-20T09:28:36.595Z,7.77
2023-01-20T09:31:22.547Z,7.80
2023-01-20T09:34:08.228Z,7.81
2023-01-20T09:37:19.069Z,7.64
2023-01-20T09:40:24.045Z,7.68
2023-01-20T09:43:52.929Z,7.52
2023-01-20T09:46:42.896Z,7.66
2023-01-20T09:49:58.408Z,7.63
2023-01-20T09:53:03.585Z,7.59
2023-01-20T09:56:01.804Z,7.63
2023-01-20T09:59:10.969Z,7.61
2023-01-20T10:01:58.697Z,7.72
2023-01-20T10:04:53.048Z,7.72
2023-01-20T10:07:56.301Z,7.67
2023-01-20T10:10:47.856Z,7.61
2023-01-20T10:13:44.187Z,7.76
2023-01-20T10:16:34.157Z,7.76
2023-01-20T10:19:54.635Z,7.80
2023-01-20T10:23:21.655Z,7.80
2023-01-20T10:26:12.512Z,7.84
2023-01-20T10:29:13.448Z,7.91
2023-01-20T10:32:01.247Z,8.00
2023-01-20T10:34:50.246Z,8.03
2023-01-20T10:37:36.547Z,7.99
2023-01-20T10:41:14.606Z,8.03
2023-01-20T10:44:01.558Z,8.18
2023-01-20T10:47:02.983Z,8.26
2023-01-20T10:50:24.056Z,8.18
2023-01-20T10:53:35.743Z,8.26
2023-01-20T10:56:33.930Z,8.33
2023-01-20T10:59:32.611Z,8.36
2023-01-20T11:02:21.753Z,8.51
2023-01-20T11:05:18.484Z,8.49
2023-01-20T11:08:15.984Z,8.40
2023-01-20T11:11:15.579Z,8.55
2023-01-20T11:14:01.564Z,8.62
2023-01-20T11:16:50.746Z,8.62
2023-01-20T11:19:55.429Z,8.58
2023-01-20T11:22:45.840Z,8.68
2023-01-20T11:25:32.746Z,8.68
2023-01-20T11:28:20.032Z,8.61
2023-01-20T11:31:06.022Z,8.54
2023-01-20T11:33:58.057Z,8.49
2023-01-20T11:36:46.123Z,8.58
2023-01-20T11:39:36.665Z,8.56
2023-01-20T11:42:32.838Z,8.49
2023-01-20T11:45:35.836Z,8.44
2023-01-20T11:48:22.611Z,8.39
2023-01-20T11:51:28.594Z,8.42
2023-01-20T11:54:24.887Z,8.42
2023-01-20T11:57:16.681Z,8.41
2023-01-20T12:00:06.933Z,8.42
2023-01-20T12:03:04.332Z,8.34
2023-01-20T12:06:05.744Z,8.45
2023-01-20T12:09:05.607Z,8.41
2023-01-20T12:12:28.923Z,8.29
2023-01-20T12:15:31.685Z,8.25
2023-01-20T12:18:37.082Z,8.35
2023-01-20T12:21:27.157Z,8.36
2023-01-20T12:24:25.034Z,8.30
2023-01-20T12:27:24.626Z,8.25
2023-01-20T12:30:26.138Z,8.08
2023-01-20T12:33:20.790Z,8.18
2023-01-20T12:36:25.088Z,8.18
2023-01-20T12:39:28.828Z,8.06
2023-01-20T12:42:48.224Z,8.06
2023-01-20T12:46:03.765Z,8.13
2023-01-20T12:49:15.646Z,8.16
2023-01-20T12:52:26.852Z,8.10
2023-01-20T12:55:19.095Z,8.22
2023-01-20T12:58:14.289Z,8.23
2023-01-20T13:01:00.346Z,8.07
2023-01-20T13:04:05.019Z,7.94
2023-01-20T13:07:12.623Z,8.14
2023-01-20T13:10:17.387Z,8.07
2023-01-20T13:13:15.506Z,8.13
2023-01-20T13:16:13.665Z,8.08
2023-01-20T13:19:06.946Z,8.16
2023-01-20T13:22:06.783Z,8.11
2023-01-20T13:24:55.846Z,8.09
2023-01-20T13:27:42.212Z,8.05
2023-01-20T13:30:48.054Z,8.07
2023-01-20T13:33:39.756Z,8.14
2023-01-20T13:36:25.536Z,8.18
2023-01-20T13:39:29.924Z,8.15
2023-01-20T13:42:31.243Z,8.07
2023-01-20T13:45:22.608Z,8.11
2023-01-20T13:48:08.713Z,8.13
2023-01-20T13:50:54.621Z,8.18
2023-01-20T13:53:40.577Z,8.12
2023-01-20T13:56:32.969Z,8.18
2023-01-20T13:59:19.203Z,8.11
2023-01-20T14:02:17.350Z,8.06
2023-01-20T14:05:03.353Z,8.08
2023-01-20T14:07:49.349Z,7.99
2023-01-20T14:10:35.227Z,8.18
2023-01-20T14:13:22.887Z,8.13
2023-01-20T14:16:21.073Z,8.09
2023-01-20T14:19:32.421Z,8.08
2023-01-20T14:22:21.008Z,8.13
2023-01-20T14:25:23.768Z,8.06
2023-01-20T14:28:19.943Z,7.93
2023-01-20T14:31:19.267Z,8.05
2023-01-20T14:34:32.302Z,8.04
2023-01-20T14:37:31.504Z,8.09
2023-01-20T14:40:26.578Z,7.95
2023-01-20T14:43:19.470Z,7.99
2023-01-20T14:46:05.529Z,7.98
2023-01-20T14:48:52.848Z,7.97
2023-01-20T14:51:38.990Z,7.98
2023-01-20T14:54:43.192Z,7.98
2023-01-20T14:57:34.351Z,7.98
2023-01-20T15:00:22.616Z,7.94
2023-01-20T15:03:18.755Z,7.82
2023-01-20T15:06:18.089Z,7.90
2023-01-20T15:09:07.569Z,7.86
2023-01-20T15:12:48.804Z,7.93
2023-01-20T15:15:35.410Z,7.96
2023-01-20T15:18:23.207Z,7.92
2023-01-20T15:21:21.471Z,7.93
2023-01-20T15:24:13.928Z,7.94
2023-01-20T15:27:02.131Z,7.92
2023-01-20T15:30:13.742Z,7.87
2023-01-20T15:33:00.595Z,7.92
2023-01-20T15:35:51.383Z,7.89
2023-01-20T15:38:37.957Z,7.92
2023-01-20T15:41:24.575Z,7.86
2023-01-20T15:44:10.526Z,7.79
2023-01-20T15:46:57.678Z,7.71
2023-01-20T15:49:43.480Z,7.80
2023-01-20T15:52:29.491Z,7.69
2023-01-20T15:55:16.955Z,7.82
2023-01-20T15:58:03.256Z,7.75
2023-01-20T16:00:49.700Z,7.79
2023-01-20T16:03:35.636Z,7.73
2023-01-20T16:06:25.257Z,7.64
2023-01-20T16:09:25.428Z,7.65
2023-01-20T16:12:18.272Z,7.66
2023-01-20T16:15:04.837Z,7.66
2023-01-20T16:17:52.812Z,7.61
2023-01-20T16:20:38.733Z,7.53
2023-01-20T16:23:24.530Z,7.58
2023-01-20T16:26:16.950Z,7.61
2023-01-20T16:29:04.849Z,7.60
2023-01-20T16:31:50.633Z,7.49
2023-01-20T16:34:36.739Z,7.56
2023-01-20T16:37:22.727Z,7.60
2023-01-20T16:40:17.671Z,7.56
2023-01-20T16:43:03.689Z,7.61
2023-01-20T16:45:54.339Z,7.61
2023-01-20T16:48:41.200Z,7.56
2023-01-20T16:51:28.269Z,7.62
2023-01-20T16:54:13.912Z,7.53
2023-01-20T16:56:59.979Z,7.65
2023-01-20T16:59:46.691Z,7.66
2023-01-20T17:02:34.225Z,7.65
2023-01-20T17:05:22.841Z,7.73
2023-01-20T17:08:09.601Z,7.61
2023-01-20T17:10:55.608Z,7.65
2023-01-20T17:13:41.518Z,7.70
2023-01-20T17:16:27.486Z,7.77
2023-01-20T17:19:15.102Z,7.76
2023-01-20T17:22:02.376Z,7.71
2023-01-20T17:24:48.312Z,7.68
2023-01-20T17:27:35.874Z,7.75
2023-01-20T17:30:22.986Z,7.78
2023-01-20T17:33:10.425Z,7.65
2023-01-20T17:35:58.237Z,7.65
2023-01-20T17:38:44.639Z,7.63
2023-01-20T17:41:30.845Z,7.58
2023-01-20T17:44:16.669Z,7.71
2023-01-20T17:47:02.774Z,7.72
2023-01-20T17:49:48.803Z,7.69
2023-01-20T17:52:34.636Z,7.70
2023-01-20T17:55:20.408Z,7.62
2023-01-20T17:58:06.209Z,7.70
2023-01-20T18:00:52.069Z,7.68
2023-01-20T18:03:39.714Z,7.66
2023-01-20T18:06:27.480Z,7.64
2023-01-20T18:09:14.680Z,7.52
2023-01-20T18:12:00.778Z,7.67
2023-01-20T18:14:46.472Z,7.68
2023-01-20T18:17:34.454Z,7.63
2023-01-20T18:20:21.624Z,7.69
2023-01-20T18:23:07.742Z,7.65
2023-01-20T18:25:56.435Z,7.66
2023-01-20T18:28:43.192Z,7.70
2023-01-20T18:31:30.873Z,7.61
2023-01-20T18:34:17.163Z,7.70
2023-01-20T18:37:03.114Z,7.60
2023-01-20T18:39:48.942Z,7.73
2023-01-20T18:42:34.802Z,7.69
2023-01-20T18:45:20.824Z,7.72
2023-01-20T18:48:06.775Z,7.66
2023-01-20T18:50:59.782Z,7.58
2023-01-20T18:53:47.452Z,7.63
2023-01-20T18:56:34.282Z,7.67
2023-01-20T18:59:20.150Z,7.68
2023-01-20T19:02:06.659Z,7.58
2023-01-20T19:04:52.500Z,7.63
2023-01-20T19:07:38.285Z,7.44
2023-01-20T19:10:24.137Z,7.64
2023-01-20T19:13:09.974Z,7.69
2023-01-20T19:15:56.327Z,7.66
2023-01-20T19:18:43.983Z,7.68
2023-01-20T19:21:32.560Z,7.72
2023-01-20T19:24:20.509Z,7.70
2023-01-20T19:27:06.377Z,7.72
2023-01-20T19:29:52.347Z,7.30
2023-01-20T19:32:42.268Z,7.45
2023-01-20T19:35:28.873Z,7.43
2023-01-20T19:38:15.088Z,7.39
2023-01-20T19:41:11.864Z,7.42
2023-01-20T19:43:59.288Z,7.42
2023-01-20T19:46:45.401Z,7.48
2023-01-20T19:49:31.425Z,7.53
2023-01-20T19:52:17.838Z,7.53
2023-01-20T19:55:03.927Z,7.19
2023-01-20T19:57:50.113Z,7.50
2023-01-20T20:00:36.115Z,7.54
2023-01-20T20:03:21.963Z,7.63
2023-01-20T20:06:18.782Z,7.66
2023-01-20T20:09:10.883Z,7.65
2023-01-20T20:11:57.861Z,7.56
2023-01-20T20:14:47.211Z,7.65
2023-01-20T20:17:33.972Z,7.68
2023-01-20T20:20:19.762Z,7.70
2023-01-20T20:23:05.791Z,7.62
2023-01-20T20:25:56.292Z,7.70
2023-01-20T20:28:42.141Z,7.72
2023-01-20T20:31:31.516Z,7.65
2023-01-20T20:34:19.157Z,7.67
2023-01-20T20:37:05.045Z,7.62
2023-01-20T20:39:50.974Z,7.58
2023-01-20T20:42:37.091Z,7.47
2023-01-20T20:45:23.356Z,7.49
2023-01-20T20:48:10.267Z,7.34
2023-01-20T20:50:56.366Z,7.42
2023-01-20T20:53:43.625Z,7.32
2023-01-20T20:56:33.146Z,7.39
2023-01-20T20:59:23.081Z,7.34
2023-01-20T21:02:12.903Z,7.17
2023-01-20T21:04:58.875Z,7.12
2023-01-20T21:07:45.545Z,7.19
2023-01-20T21:10:31.649Z,7.15
2023-01-20T21:13:17.877Z,6.98
2023-01-20T21:16:10.490Z,7.12
2023-01-20T21:18:58.220Z,6.99
2023-01-20T21:21:44.920Z,6.98
2023-01-20T21:24:30.974Z,7.10
2023-01-20T21:27:16.905Z,7.05
2023-01-20T21:30:02.722Z,7.02
2023-01-20T21:32:48.633Z,7.02
2023-01-20T21:35:37.387Z,7.02
2023-01-20T21:38:23.431Z,6.88
2023-01-20T21:41:10.560Z,6.83
2023-01-20T21:44:15.274Z,6.83
2023-01-20T21:47:07.987Z,6.81
2023-01-20T21:50:12.497Z,6.80
2023-01-20T21:52:58.255Z,6.87
2023-01-20T21:55:44.077Z,6.87
2023-01-20T21:58:30.020Z,6.85
2023-01-20T22:01:16.112Z,6.83
2023-01-20T22:04:02.199Z,6.82
2023-01-20T22:06:48.434Z,6.73
2023-01-20T22:09:34.448Z,6.76
2023-01-20T22:12:20.885Z,6.84
2023-01-20T22:15:07.531Z,6.60
2023-01-20T22:17:53.947Z,6.71
2023-01-20T22:20:40.392Z,6.77
2023-01-20T22:23:26.324Z,6.73
2023-01-20T22:26:12.276Z,6.73
2023-01-20T22:28:58.912Z,6.72
2023-01-20T22:31:45.896Z,6.77
2023-01-20T22:34:31.969Z,6.77
2023-01-20T22:37:17.762Z,6.77
2023-01-20T22:40:05.219Z,6.73
2023-01-20T22:42:51.104Z,6.80
2023-01-20T22:45:36.821Z,6.79
2023-01-20T22:48:22.644Z,6.77
2023-01-20T22:51:10.855Z,6.74
2023-01-20T22:53:59.001Z,6.79
2023-01-20T22:56:44.929Z,6.83
2023-01-20T22:59:30.889Z,6.82
2023-01-20T23:02:16.739Z,6.78
2023-01-20T23:05:02.657Z,6.74
2023-01-20T23:07:48.580Z,6.66
2023-01-20T23:10:46.506Z,6.63
2023-01-20T23:13:33.013Z,6.54
2023-01-20T23:16:22.350Z,6.63
2023-01-20T23:19:08.828Z,6.56
2023-01-20T23:21:54.987Z,6.61
2023-01-20T23:24:41.190Z,6.60
2023-01-20T23:27:27.243Z,6.59
2023-01-20T23:30:13.235Z,6.52
2023-01-20T23:32:58.881Z,6.67
2023-01-20T23:35:44.697Z,6.62
2023-01-20T23:38:30.771Z,6.66
2023-01-20T23:41:16.887Z,6.65
2023-01-20T23:44:03.276Z,6.65
2023-01-20T23:46:49.053Z,6.67
2023-01-20T23:49:34.927Z,6.68
2023-01-20T23:52:21.753Z,6.69
2023-01-20T23:55:08.114Z,6.49
2023-01-20T23:57:54.044Z,6.46
